This is the latest recevied weather packets stored in our database for station/object EB2BAG-11. If no packets are shown the sender has not sent any weather packets the latest 10 day(s).
| Time | Temp. | Humidity | Pressure | Rain* | Wind** | Luminosity | Snow |
|---|---|---|---|---|---|---|---|
| 1777515330 | 16.67° C | 80% | 1013.3 hPa | - | - | - | - |
| 1777514130 | 16.67° C | 84% | 1013.5 hPa | - | - | - | - |
| 1777512930 | 16.67° C | 84% | 1013.6 hPa | - | - | - | - |
| 1777511730 | 17.22° C | 82% | 1013.6 hPa | - | - | - | - |
| 1777510530 | 16.67° C | 81% | 1013.8 hPa | - | - | - | - |
| 1777509330 | 17.22° C | 81% | 1014.2 hPa | - | - | - | - |
| 1777508130 | 17.22° C | 80% | 1014.3 hPa | - | - | - | - |
| 1777506930 | 17.78° C | 77% | 1014.3 hPa | - | - | - | - |
| 1777505730 | 18.33° C | 74% | 1014 hPa | - | - | - | - |
| 1777503329 | 18.33° C | 76% | 1012.9 hPa | - | - | - | - |
| 1777502129 | 18.33° C | 72% | 1012.5 hPa | - | - | - | - |
| 1777500929 | 17.22° C | 79% | 1011.7 hPa | - | - | - | - |
| 1777499729 | 17.22° C | 78% | 1011.4 hPa | - | - | - | - |
| 1777498529 | 17.78° C | 78% | 1011.4 hPa | - | - | - | - |
| 1777497329 | 17.78° C | 78% | 1011.6 hPa | - | - | - | - |
| 1777496129 | 18.33° C | 76% | 1011.6 hPa | - | - | - | - |
| 1777494953 | 17.78° C | 78% | 1011.5 hPa | - | - | - | - |
| 1777493729 | 18.33° C | 78% | 1011.6 hPa | - | - | - | - |
| 1777492528 | 18.33° C | 77% | 1011.2 hPa | - | - | - | - |
| 1777491328 | 18.33° C | 78% | 1011.2 hPa | - | - | - | - |
| 1777490128 | 18.89° C | 76% | 1011.3 hPa | - | - | - | - |
| 1777488928 | 18.89° C | 79% | 1011 hPa | - | - | - | - |
| 1777487728 | 18.89° C | 79% | 1011.2 hPa | - | - | - | - |
| 1777486524 | 20° C | 78% | 1011.3 hPa | - | - | - | - |
| 1777485324 | 20° C | 76% | 1011.1 hPa | - | - | - | - |
* Rain since midnight (hover to see other rain measurements)
** Current wind speed in m/s (hover to see current wind gust speed)